Portada
METAR-TAF:

METAR-TAF

Aeropuertos :

Tenerife, España

Aeropuerto de Tenerife Norte

latitud: 28-28N, longitud: 016-19W, altitud: 632 m

Observación

El informe se hizo hace 18 minutos, a las 08:00 UTC
Viento 12 kt del oeste-noroeste
Temperatura 16°C
Humedad 82%
Presión 1018 hPa
Visibilidad 10 km o más
Cielo nuboso a una altura de 1300 ft

METAR: GCXO 220800Z 30012KT 9999 BKN013 16/13 Q1018 NOSIG

Hora: 09:18 (08:18 UTC)

Pronóstico

El informe se hizo hace 6 horas y 18 minutos, a las 02:00 UTC
Pronóstico válido del 22 a las 03 UTC al 23 a las 03 UTC
Viento 14 kt del oeste-noroeste
Visibilidad 10 km o más
Nubes dispersas a una altura de 1000 ft
Probabilidad 40% :
Temporalmente
del 22 a las 15 UTC al 23 a las 03 UTC
Visibilidad: 3000 m
Cielo nuboso a una altura de 500 ft
llovizna, lluvia, niebla en bancos

TAF: GCXO 220200Z 2203/2303 30014KT 9999 SCT010 TX19/2214Z TN12/2205Z PROB40 TEMPO 2215/2303 3000 DZRA BCFG BKN005

Observaciones y pronósticos meteorológicos de más de 4000 aeropuertos (mensajes METAR y TAF).

Los puntos amarillos y rojos representan las estaciones disponibles.

Ponga el ratón en el punto deseado para ver el nombre de la estación.

Haga clic para ver las observaciones y los pronósticos meteorológicos.

Para cambiar el mapa : haga clic en los botones verdes con una cruz de color negro para hacer un zoom, en el botón verde con un guión para alejar o en las flechas verdes para mapas adyacentes.


METAR-TAF: